Time;durP1;ratioP1;P1;durP2;ratioP2;P2;SDS_P1;SDS_P2;PMS_P1;PMS_P2;Temp;Humidity;BMP_temperature;BMP_pressure;BME280_temperature;BME280_humidity;BME280_pressure;Samples;Min_cycle;Max_cycle;Signal;HPM_P1;HPM_P2
2023/10/15 00:00:50;;;;;;;0.75;0.68;;;;;;;9.60;64.05;98317.09;5085498;28;20032;-64
2023/10/15 00:03:15;;;;;;;2.03;1.50;;;;;;;9.55;63.82;98322.44;5085388;28;20023;-64
2023/10/15 00:05:41;;;;;;;9.07;1.23;;;;;;;9.63;63.49;98322.13;5085389;28;20021;-66
2023/10/15 00:08:06;;;;;;;12.02;1.23;;;;;;;9.58;63.95;98320.63;5085477;28;20035;-66
2023/10/15 00:10:31;;;;;;;3.63;0.85;;;;;;;9.54;63.78;98312.13;5085208;28;20024;-63
2023/10/15 00:12:58;;;;;;;3.05;0.93;;;;;;;9.57;64.08;98337.09;5085209;28;20412;-65
2023/10/15 00:15:29;;;;;;;0.80;0.70;;;;;;;9.53;64.16;98331.19;5085055;28;20024;-65
2023/10/15 00:17:59;;;;;;;1.83;0.80;;;;;;;9.55;64.07;98350.09;5085269;28;20472;-63
2023/10/15 00:20:28;;;;;;;2.05;0.82;;;;;;;9.53;64.02;98336.34;5085225;28;20032;-66
2023/10/15 00:22:53;;;;;;;1.63;1.38;;;;;;;9.48;64.22;98346.03;5085219;28;20029;-63
2023/10/15 00:25:19;;;;;;;6.18;1.30;;;;;;;9.43;64.24;98338.44;5085083;28;20024;-65
2023/10/15 00:27:52;;;;;;;19.67;0.82;;;;;;;9.47;64.15;98352.13;5084806;28;20059;-65
2023/10/15 00:30:19;;;;;;;1.90;0.68;;;;;;;9.51;64.26;98353.69;5085140;28;20021;-64
2023/10/15 00:32:45;;;;;;;1.50;0.68;;;;;;;9.51;64.38;98349.38;5084385;28;20028;-65
2023/10/15 00:35:13;;;;;;;1.25;1.08;;;;;;;9.49;64.25;98338.22;5084628;28;20016;-65
2023/10/15 00:37:40;;;;;;;7.68;1.25;;;;;;;9.51;64.29;98345.94;5085331;28;20035;-65
2023/10/15 00:40:16;;;;;;;15.57;1.38;;;;;;;9.49;64.30;98355.53;5066632;28;20028;-64
2023/10/15 00:42:47;;;;;;;4.57;0.82;;;;;;;9.46;64.43;98361.63;5084749;28;20025;-64
2023/10/15 00:45:14;;;;;;;2.65;0.93;;;;;;;9.39;64.27;98368.78;5084540;28;20040;-65
2023/10/15 00:47:41;;;;;;;6.70;1.20;;;;;;;9.51;63.80;98364.06;5084953;28;20419;-64
2023/10/15 00:50:08;;;;;;;4.07;1.25;;;;;;;9.34;64.32;98365.53;5084702;28;20020;-65
2023/10/15 00:52:43;;;;;;;1.48;0.77;;;;;;;9.38;64.57;98385.22;5084795;28;20552;-65
2023/10/15 00:55:16;;;;;;;0.98;0.52;;;;;;;9.39;64.47;98399.03;5084553;28;20481;-65
2023/10/15 00:57:46;;;;;;;3.58;0.80;;;;;;;9.39;64.53;98397.28;5084338;28;20025;-64
2023/10/15 01:01:00;;;;;;;5.25;2.20;;;;;;;9.40;64.42;98392.94;5084676;28;20024;-63
2023/10/15 01:02:58;;;;;;;0.65;0.57;;;;;;;9.36;64.53;98397.38;5064627;28;20035;-65
2023/10/15 01:05:26;;;;;;;4.47;0.65;;;;;;;9.37;64.33;98401.69;5084449;28;20099;-65
2023/10/15 01:07:54;;;;;;;1.85;1.48;;;;;;;9.33;64.33;98392.31;5084631;28;20028;-64
2023/10/15 01:10:31;;;;;;;6.97;1.45;;;;;;;9.38;64.17;98405.94;5084505;28;20025;-64
2023/10/15 01:12:58;;;;;;;1.05;0.95;;;;;;;9.32;64.28;98403.59;5084342;28;20025;-65
2023/10/15 01:15:26;;;;;;;3.92;1.20;;;;;;;9.39;64.45;98419.75;5084342;28;20021;-64
2023/10/15 01:18:00;;;;;;;2.55;0.57;;;;;;;9.37;64.49;98419.81;5066386;28;20031;-64
2023/10/15 01:20:30;;;;;;;12.60;0.73;;;;;;;9.33;64.34;98428.56;5084344;28;20484;-64
2023/10/15 01:22:55;;;;;;;1.17;0.68;;;;;;;9.37;64.39;98431.91;5084593;28;20023;-65
2023/10/15 01:25:31;;;;;;;2.15;0.45;;;;;;;9.30;64.50;98439.03;5083966;28;20104;-64
2023/10/15 01:28:00;;;;;;;1.50;0.85;;;;;;;9.29;64.55;98443.38;5084097;28;20028;-65
2023/10/15 01:30:35;;;;;;;7.00;0.93;;;;;;;9.35;64.28;98447.50;5084531;28;20044;-64
2023/10/15 01:33:06;;;;;;;7.68;1.23;;;;;;;9.32;64.39;98447.59;5084191;28;20028;-65
2023/10/15 01:35:31;;;;;;;2.78;1.10;;;;;;;9.28;64.71;98449.44;5083914;28;20040;-65
2023/10/15 01:38:10;;;;;;;4.63;0.90;;;;;;;9.27;64.55;98439.16;5084230;28;20029;-64
2023/10/15 01:40:39;;;;;;;6.57;0.88;;;;;;;9.33;63.76;98451.06;5084292;28;20576;-65
2023/10/15 01:43:14;;;;;;;1.23;0.80;;;;;;;9.28;63.93;98441.69;5084784;28;20029;-65
2023/10/15 01:45:41;;;;;;;1.00;0.63;;;;;;;9.26;64.06;98443.50;5086350;28;20576;-65
2023/10/15 01:48:24;;;;;;;1.40;1.08;;;;;;;9.29;64.10;98442.53;5087671;28;20048;-66
2023/10/15 01:50:52;;;;;;;0.85;0.65;;;;;;;9.28;64.00;98466.75;5087911;28;20526;-64
2023/10/15 01:53:24;;;;;;;4.35;1.17;;;;;;;9.28;63.84;98471.94;5087745;28;20028;-66
2023/10/15 01:56:00;;;;;;;1.85;0.88;;;;;;;9.24;63.66;98470.31;5087483;28;20380;-65
2023/10/15 01:58:30;;;;;;;0.60;0.47;;;;;;;9.15;63.66;98459.38;5087306;28;20052;-64
2023/10/15 02:01:04;;;;;;;10.02;1.33;;;;;;;9.24;63.89;98480.69;5087147;28;20423;-64
2023/10/15 02:03:31;;;;;;;0.80;0.50;;;;;;;9.22;63.92;98485.09;5087358;28;20051;-65
2023/10/15 02:06:01;;;;;;;3.72;0.93;;;;;;;9.24;64.11;98496.22;5087490;28;20181;-64
2023/10/15 02:08:26;;;;;;;0.65;0.65;;;;;;;9.26;64.16;98500.47;5087635;28;20025;-64
2023/10/15 02:10:52;;;;;;;3.08;0.95;;;;;;;9.26;64.36;98492.69;5087239;28;20017;-64
2023/10/15 02:13:21;;;;;;;1.15;0.85;;;;;;;9.32;64.26;98504.56;5085745;28;20092;-65
2023/10/15 02:15:49;;;;;;;1.83;0.73;;;;;;;9.31;64.28;98508.06;5087386;28;20020;-63
2023/10/15 02:18:17;;;;;;;3.60;1.00;;;;;;;9.31;63.99;98513.25;5087173;28;20096;-65
2023/10/15 02:21:00;;;;;;;0.77;0.52;;;;;;;9.32;63.76;98519.25;5086969;28;20096;-65
2023/10/15 02:23:26;;;;;;;0.65;0.50;;;;;;;9.29;63.86;98512.44;5087378;28;20021;-64
2023/10/15 02:26:00;;;;;;;2.00;0.90;;;;;;;9.35;64.21;98525.19;5086985;28;20019;-64
2023/10/15 02:28:27;;;;;;;2.08;1.08;;;;;;;9.35;64.05;98522.59;5087067;28;20488;-64
2023/10/15 02:31:00;;;;;;;1.30;0.90;;;;;;;9.35;64.21;98535.56;5069053;28;20025;-65
2023/10/15 02:33:25;;;;;;;14.57;1.38;;;;;;;9.34;64.05;98533.88;5087020;28;20025;-63
2023/10/15 02:35:54;;;;;;;1.83;1.38;;;;;;;9.42;64.09;98534.44;5086878;28;20430;-64
2023/10/15 02:38:25;;;;;;;0.40;0.40;;;;;;;9.45;63.82;98535.22;5068751;28;20039;-64
2023/10/15 02:41:03;;;;;;;0.90;0.75;;;;;;;9.48;64.06;98543.75;5086943;28;20025;-65
2023/10/15 02:43:29;;;;;;;1.00;0.90;;;;;;;9.57;64.14;98546.94;5086332;28;20025;-65
2023/10/15 02:46:00;;;;;;;1.05;0.57;;;;;;;9.60;64.25;98555.44;5086640;28;20033;-64
2023/10/15 02:48:26;;;;;;;0.45;0.45;;;;;;;9.63;64.05;98544.97;5086907;28;20026;-65
2023/10/15 02:51:01;;;;;;;0.57;0.55;;;;;;;9.74;63.60;98559.31;5086689;28;20024;-64
2023/10/15 02:53:32;;;;;;;2.25;0.65;;;;;;;9.82;63.40;98559.03;5086637;28;20096;-65
2023/10/15 02:55:58;;;;;;;1.75;0.95;;;;;;;9.85;63.03;98566.69;5086420;28;20076;-64
2023/10/15 02:58:28;;;;;;;3.42;1.20;;;;;;;9.83;62.68;98564.16;5086318;28;20039;-64
2023/10/15 03:00:59;;;;;;;1.35;0.88;;;;;;;9.89;62.83;98576.03;5068464;28;20122;-64
2023/10/15 03:03:32;;;;;;;1.38;0.60;;;;;;;9.94;62.81;98581.91;5086315;28;20036;-64
2023/10/15 03:05:58;;;;;;;0.50;0.50;;;;;;;9.98;63.14;98582.66;5086414;28;20051;-65
2023/10/15 03:08:30;;;;;;;0.98;0.68;;;;;;;9.97;62.86;98579.22;5086322;28;20024;-65
2023/10/15 03:11:01;;;;;;;2.40;0.95;;;;;;;10.01;62.83;98596.38;5086266;28;20024;-64
2023/10/15 03:13:26;;;;;;;8.57;1.15;;;;;;;10.01;63.22;98587.75;5086147;28;20021;-65
2023/10/15 03:15:52;;;;;;;1.77;0.73;;;;;;;10.03;63.16;98583.34;5086038;28;20107;-65
2023/10/15 03:18:24;;;;;;;12.20;1.50;;;;;;;9.97;62.91;98591.34;5086193;28;20028;-65
2023/10/15 03:21:00;;;;;;;0.73;0.70;;;;;;;9.98;63.14;98593.88;5086139;28;20036;-64
2023/10/15 03:23:25;;;;;;;2.08;1.05;;;;;;;9.97;62.80;98593.94;5086134;28;20088;-65
2023/10/15 03:25:57;;;;;;;14.40;1.13;;;;;;;10.00;62.74;98599.03;5085928;28;20032;-65
2023/10/15 03:28:23;;;;;;;5.53;0.88;;;;;;;10.00;62.88;98599.03;5085852;28;20021;-65
2023/10/15 03:30:49;;;;;;;2.10;0.57;;;;;;;9.99;62.68;98602.50;5085833;28;20491;-65
2023/10/15 03:33:16;;;;;;;7.07;1.20;;;;;;;10.04;62.76;98606.63;5085842;28;20024;-64
2023/10/15 03:35:46;;;;;;;2.90;0.55;;;;;;;10.09;63.00;98616.84;5085756;28;20032;-64
2023/10/15 03:38:15;;;;;;;1.23;0.60;;;;;;;10.07;62.88;98602.22;5067765;28;20084;-65
2023/10/15 03:40:47;;;;;;;0.88;0.60;;;;;;;10.10;63.24;98618.53;5085589;28;20089;-64
2023/10/15 03:43:20;;;;;;;7.13;0.93;;;;;;;10.12;63.14;98629.69;5085467;28;20029;-64
2023/10/15 03:45:52;;;;;;;2.75;1.15;;;;;;;10.16;62.92;98636.44;5067334;28;20040;-64
2023/10/15 03:48:22;;;;;;;2.95;1.15;;;;;;;10.16;62.98;98633.00;5085583;28;20036;-65
2023/10/15 03:50:58;;;;;;;1.08;0.73;;;;;;;10.12;62.64;98640.06;5085479;28;20561;-65
2023/10/15 03:53:28;;;;;;;1.27;0.73;;;;;;;10.14;62.54;98637.41;5067440;28;20120;-64
2023/10/15 03:56:01;;;;;;;2.80;0.50;;;;;;;10.20;62.88;98651.91;5085224;28;20035;-65
2023/10/15 03:58:28;;;;;;;0.57;0.57;;;;;;;10.23;63.01;98647.47;5085153;28;20025;-64
2023/10/15 04:01:16;;;;;;;0.65;0.57;;;;;;;10.15;63.20;98650.34;5085376;28;20028;-64
2023/10/15 04:03:43;;;;;;;1.15;0.77;;;;;;;10.11;63.36;98660.88;5084986;28;20016;-66
2023/10/15 04:06:09;;;;;;;1.75;0.50;;;;;;;9.99;63.69;98657.78;5084668;28;20025;-63
2023/10/15 04:08:37;;;;;;;1.90;0.77;;;;;;;10.01;63.61;98660.34;5067127;28;20021;-64
2023/10/15 04:11:03;;;;;;;1.80;0.60;;;;;;;10.04;63.79;98666.25;5084816;28;20017;-65
2023/10/15 04:13:28;;;;;;;2.22;1.45;;;;;;;10.01;63.89;98666.38;5084751;28;20028;-65
2023/10/15 04:15:55;;;;;;;0.93;0.60;;;;;;;10.07;63.86;98670.50;5067051;28;20116;-64
2023/10/15 04:18:25;;;;;;;1.58;0.75;;;;;;;10.11;63.75;98674.66;5084886;28;20032;-65
2023/10/15 04:20:55;;;;;;;2.65;0.93;;;;;;;10.10;64.02;98680.75;5085063;28;20020;-65
2023/10/15 04:23:30;;;;;;;5.57;0.75;;;;;;;10.10;63.99;98688.53;5084937;28;20031;-64
2023/10/15 04:25:58;;;;;;;5.28;1.02;;;;;;;10.19;63.63;98687.38;5085359;28;20080;-64
2023/10/15 04:28:25;;;;;;;0.65;0.63;;;;;;;10.13;64.18;98690.16;5084601;28;20025;-64
2023/10/15 04:30:51;;;;;;;1.85;0.73;;;;;;;10.15;64.07;98698.75;5066942;28;20020;-64
2023/10/15 04:33:19;;;;;;;2.08;0.73;;;;;;;10.07;64.23;98704.19;5084992;28;20025;-64
2023/10/15 04:35:48;;;;;;;3.22;1.00;;;;;;;10.00;64.58;98697.53;5084740;28;20080;-64
2023/10/15 04:38:27;;;;;;;3.05;0.50;;;;;;;9.97;65.03;98698.47;5084883;28;20024;-64
2023/10/15 04:43:25;;;;;;;3.92;1.17;;;;;;;9.97;65.25;98710.59;5084669;28;20029;-63
2023/10/15 04:45:51;;;;;;;1.33;0.82;;;;;;;9.96;64.98;98711.47;5084560;28;20090;-63
2023/10/15 04:48:18;;;;;;;8.15;0.70;;;;;;;9.87;65.55;98708.28;5085005;28;20427;-63
2023/10/15 04:50:44;;;;;;;3.90;0.70;;;;;;;9.82;65.47;98706.75;5084776;28;20024;-64
2023/10/15 04:55:43;;;;;;;4.65;1.17;;;;;;;9.75;65.76;98722.50;5084697;28;20036;-65
2023/10/15 04:58:09;;;;;;;0.55;0.55;;;;;;;9.79;65.65;98715.50;5084309;28;20024;-65
2023/10/15 05:00:38;;;;;;;0.98;0.63;;;;;;;9.77;65.71;98723.31;5084712;28;20036;-65
2023/10/15 05:03:04;;;;;;;2.30;1.05;;;;;;;9.73;65.77;98723.47;5084391;28;20028;-64
2023/10/15 05:05:31;;;;;;;3.03;0.80;;;;;;;9.78;65.55;98739.69;5084619;28;20016;-64
2023/10/15 05:07:59;;;;;;;1.75;0.65;;;;;;;9.72;65.67;98732.13;5084285;28;20028;-64
2023/10/15 05:10:28;;;;;;;8.63;0.57;;;;;;;9.76;65.66;98734.56;5084465;28;20025;-64
2023/10/15 05:12:53;;;;;;;3.20;2.17;;;;;;;9.75;65.90;98739.78;5084370;28;20020;-64
2023/10/15 05:15:19;;;;;;;0.60;0.50;;;;;;;9.75;65.81;98739.78;5084622;28;20027;-65
2023/10/15 05:17:47;;;;;;;1.40;0.88;;;;;;;9.74;65.77;98745.88;5066710;28;20491;-64
2023/10/15 05:20:13;;;;;;;0.57;0.43;;;;;;;9.72;65.78;98743.34;5088551;28;20096;-64
2023/10/15 05:22:39;;;;;;;0.65;0.43;;;;;;;9.70;65.56;98754.63;5088282;28;20023;-63
2023/10/15 05:25:05;;;;;;;2.45;0.60;;;;;;;9.70;65.12;98746.84;5088320;28;20021;-65
2023/10/15 05:27:32;;;;;;;0.70;0.70;;;;;;;9.69;65.44;98747.75;5088054;28;20031;-64
2023/10/15 05:29:58;;;;;;;0.95;0.77;;;;;;;9.84;65.44;98767.19;5088352;28;20021;-64
2023/10/15 05:32:24;;;;;;;1.15;0.50;;;;;;;9.79;65.24;98777.69;5088164;28;20032;-65
2023/10/15 05:34:49;;;;;;;2.65;1.10;;;;;;;9.83;65.15;98779.28;5070277;28;20032;-65
2023/10/15 05:37:16;;;;;;;2.25;1.58;;;;;;;9.82;64.74;98798.31;5086881;28;20024;-64
2023/10/15 05:39:41;;;;;;;4.50;0.68;;;;;;;9.83;64.62;98796.56;5088120;28;20127;-64
2023/10/15 05:42:07;;;;;;;0.40;0.40;;;;;;;9.81;64.56;98801.78;5070072;28;20508;-63
2023/10/15 05:44:34;;;;;;;1.75;1.38;;;;;;;9.78;64.77;98791.53;5087547;28;20039;-64
2023/10/15 05:47:00;;;;;;;0.93;0.68;;;;;;;9.73;64.84;98803.81;5087805;28;20056;-64
2023/10/15 05:49:25;;;;;;;2.55;0.68;;;;;;;9.63;65.08;98808.41;5088081;28;20037;-64
2023/10/15 05:51:51;;;;;;;0.85;0.75;;;;;;;9.61;65.18;98813.63;5087920;28;20035;-65
2023/10/15 05:54:17;;;;;;;1.00;0.50;;;;;;;9.61;65.16;98815.38;5086518;28;20025;-65
2023/10/15 05:56:42;;;;;;;1.17;0.85;;;;;;;9.59;65.20;98820.59;5087459;28;20085;-65
2023/10/15 05:59:08;;;;;;;0.52;0.52;;;;;;;9.61;65.42;98821.41;5087556;28;20028;-64
2023/10/15 06:01:33;;;;;;;1.85;0.57;;;;;;;9.60;65.40;98826.66;5087577;28;20024;-65
2023/10/15 06:03:59;;;;;;;1.02;0.90;;;;;;;9.61;65.35;98829.19;5087349;28;20036;-65
2023/10/15 06:06:25;;;;;;;2.72;1.00;;;;;;;9.61;65.71;98834.38;5087348;28;20046;-65
2023/10/15 06:08:52;;;;;;;2.92;0.75;;;;;;;9.55;65.63;98831.97;5087243;28;20270;-64
2023/10/15 06:11:17;;;;;;;5.68;0.70;;;;;;;9.53;65.30;98831.16;5069309;28;20115;-65
2023/10/15 06:13:43;;;;;;;0.68;0.50;;;;;;;9.54;65.17;98857.00;5087286;28;20016;-66
2023/10/15 06:16:08;;;;;;;0.50;0.50;;;;;;;9.59;65.36;98859.47;5087385;28;20025;-65
2023/10/15 06:18:33;;;;;;;2.80;1.15;;;;;;;9.58;65.61;98860.38;5087378;28;20055;-65
2023/10/15 06:20:59;;;;;;;0.80;0.80;;;;;;;9.54;64.98;98869.97;5087126;28;20024;-65
2023/10/15 06:23:24;;;;;;;1.90;1.10;;;;;;;9.59;65.15;98880.19;5087348;28;20530;-66
2023/10/15 06:25:50;;;;;;;0.95;0.70;;;;;;;9.61;65.44;98882.75;5087055;28;20050;-64
2023/10/15 06:28:15;;;;;;;7.20;0.90;;;;;;;9.62;65.10;98884.44;5087081;28;20024;-65
2023/10/15 06:30:42;;;;;;;1.23;0.65;;;;;;;9.65;64.96;98895.56;5086527;28;20028;-64
2023/10/15 06:33:07;;;;;;;0.40;0.40;;;;;;;9.63;65.10;98912.06;5086940;28;20251;-65
2023/10/15 06:35:33;;;;;;;4.05;0.98;;;;;;;9.67;65.30;98918.84;5087096;28;20357;-64
2023/10/15 06:37:58;;;;;;;2.00;0.45;;;;;;;9.69;65.50;98922.25;5087008;28;20147;-66
2023/10/15 06:40:24;;;;;;;0.60;0.60;;;;;;;9.74;65.58;98919.50;5087218;28;20169;-65
2023/10/15 06:42:51;;;;;;;4.47;0.77;;;;;;;9.77;65.28;98917.69;5086588;28;20116;-66
2023/10/15 06:45:19;;;;;;;1.67;0.90;;;;;;;9.82;65.29;98932.25;5068511;28;20055;-65
2023/10/15 06:47:46;;;;;;;0.80;0.80;;;;;;;9.85;65.40;98932.16;5086691;28;20036;-65
2023/10/15 06:50:11;;;;;;;3.05;0.93;;;;;;;9.87;65.14;98917.41;5086636;28;20028;-63
2023/10/15 06:52:38;;;;;;;0.88;0.77;;;;;;;10.01;65.18;98941.19;5086700;28;20047;-63
2023/10/15 06:55:08;;;;;;;2.13;0.90;;;;;;;10.14;65.48;98951.19;5086666;28;20104;-64
2023/10/15 06:57:38;;;;;;;0.88;0.82;;;;;;;10.31;65.54;98950.66;5068061;28;20032;-64
2023/10/15 07:00:06;;;;;;;1.38;0.65;;;;;;;10.49;65.30;98951.03;5086696;28;20027;-64
2023/10/15 07:02:31;;;;;;;1.15;1.00;;;;;;;10.59;65.25;98959.38;5086584;28;20035;-64
2023/10/15 07:04:56;;;;;;;0.77;0.73;;;;;;;10.70;65.23;98967.66;5086589;28;20048;-63
2023/10/15 07:07:22;;;;;;;0.43;0.43;;;;;;;10.75;65.09;98975.31;5086444;28;20028;-64
2023/10/15 07:09:48;;;;;;;3.13;0.70;;;;;;;10.80;65.22;98983.78;5086570;28;20021;-64
2023/10/15 07:12:14;;;;;;;0.40;0.40;;;;;;;10.86;65.44;98980.97;5086666;28;20079;-64
2023/10/15 07:14:39;;;;;;;2.65;0.43;;;;;;;10.94;65.31;98990.28;5086207;28;20028;-64
2023/10/15 07:17:05;;;;;;;0.40;0.40;;;;;;;11.06;64.94;98994.19;5086144;28;20021;-64
2023/10/15 07:19:30;;;;;;;2.35;0.90;;;;;;;11.02;64.74;98994.31;5086121;28;20032;-63
2023/10/15 07:21:56;;;;;;;1.65;0.73;;;;;;;11.21;64.67;99009.28;5068184;28;20021;-64
2023/10/15 07:24:22;;;;;;;3.63;0.93;;;;;;;11.28;63.73;99009.91;5085986;28;20020;-64
2023/10/15 07:26:47;;;;;;;0.90;0.90;;;;;;;11.39;64.37;99004.34;5085836;28;20504;-64
2023/10/15 07:29:13;;;;;;;0.40;0.40;;;;;;;11.44;64.17;99019.81;5085786;28;20059;-64
2023/10/15 07:31:38;;;;;;;0.52;0.50;;;;;;;11.46;64.62;99012.78;5086019;28;20020;-64
2023/10/15 07:34:05;;;;;;;0.80;0.70;;;;;;;11.56;64.46;99021.97;5085516;28;20020;-64
2023/10/15 07:36:32;;;;;;;4.40;0.63;;;;;;;11.63;64.76;99036.44;5085512;28;20027;-64
2023/10/15 07:38:57;;;;;;;0.50;0.50;;;;;;;11.54;64.26;99018.56;5085808;28;20032;-65
2023/10/15 07:41:23;;;;;;;0.90;0.50;;;;;;;11.69;64.10;99039.75;5084955;28;20362;-64
2023/10/15 07:43:48;;;;;;;0.93;0.60;;;;;;;11.69;64.09;99032.81;5085295;28;20020;-63
2023/10/15 07:46:13;;;;;;;2.15;0.57;;;;;;;11.80;63.89;99053.22;5085398;28;20055;-63
2023/10/15 07:48:40;;;;;;;5.40;0.70;;;;;;;11.85;62.76;99056.47;5085695;28;20093;-64
2023/10/15 07:51:05;;;;;;;0.45;0.40;;;;;;;11.88;63.70;99051.19;5085541;28;20020;-64
2023/10/15 07:53:31;;;;;;;1.25;0.85;;;;;;;11.92;61.72;99064.91;5085258;28;20028;-63
2023/10/15 07:55:56;;;;;;;0.43;0.38;;;;;;;11.94;61.89;99067.47;5085345;28;20040;-63
2023/10/15 07:58:21;;;;;;;0.60;0.50;;;;;;;11.93;60.84;99076.19;5084929;28;20027;-64
2023/10/15 08:00:50;;;;;;;1.17;0.63;;;;;;;11.90;60.05;99075.38;5085277;28;20499;-65
2023/10/15 08:03:16;;;;;;;0.40;0.40;;;;;;;11.87;59.49;99075.47;5067173;28;20027;-64
2023/10/15 08:05:44;;;;;;;0.52;0.50;;;;;;;11.88;59.24;99091.94;5085260;28;20108;-64
2023/10/15 08:08:11;;;;;;;1.35;0.68;;;;;;;11.84;58.70;99079.94;5085241;28;20419;-64
2023/10/15 08:10:37;;;;;;;0.73;0.68;;;;;;;11.90;58.61;99085.78;5067099;28;20429;-65
2023/10/15 08:13:03;;;;;;;2.63;0.77;;;;;;;11.95;58.96;99096.00;5085166;28;20031;-65
2023/10/15 08:15:29;;;;;;;1.15;0.60;;;;;;;11.98;56.62;99102.88;5084954;28;20017;-64
2023/10/15 08:17:57;;;;;;;0.45;0.43;;;;;;;12.04;57.17;99102.66;5084910;28;20054;-65
2023/10/15 08:20:23;;;;;;;0.50;0.50;;;;;;;12.29;56.98;99114.81;5067049;28;20444;-64
2023/10/15 08:22:49;;;;;;;0.43;0.43;;;;;;;12.72;57.79;99127.13;5085065;28;20025;-64
2023/10/15 08:25:14;;;;;;;0.52;0.52;;;;;;;13.40;55.70;99121.03;5084907;28;20158;-63
2023/10/15 08:27:44;;;;;;;3.80;0.70;;;;;;;13.88;54.63;99116.44;5084875;28;20032;-65
2023/10/15 08:30:13;;;;;;;1.02;0.65;;;;;;;14.33;53.73;99137.13;5085048;28;20027;-64
2023/10/15 08:32:40;;;;;;;1.90;0.77;;;;;;;14.59;52.57;99132.50;5085126;28;20066;-66
2023/10/15 08:35:06;;;;;;;0.55;0.55;;;;;;;14.51;51.29;99137.22;5084993;28;20070;-64
2023/10/15 08:37:35;;;;;;;1.50;0.52;;;;;;;14.22;49.21;99148.06;5085153;28;20029;-64
2023/10/15 08:40:04;;;;;;;0.32;0.32;;;;;;;13.80;50.28;99147.22;5085103;28;20031;-66
2023/10/15 08:42:35;;;;;;;0.50;0.50;;;;;;;13.59;48.45;99147.22;5084502;28;20115;-66
2023/10/15 08:45:05;;;;;;;0.40;0.40;;;;;;;13.35;48.86;99157.72;5084770;28;20036;-65
2023/10/15 08:47:33;;;;;;;0.77;0.40;;;;;;;13.08;49.06;99152.66;5066603;28;20033;-65
2023/10/15 08:50:00;;;;;;;0.60;0.60;;;;;;;12.77;48.20;99169.47;5084608;28;20035;-66
2023/10/15 08:52:26;;;;;;;0.40;0.40;;;;;;;12.57;48.69;99167.63;5086112;28;20028;-65
2023/10/15 08:54:54;;;;;;;1.52;0.55;;;;;;;12.42;48.53;99169.00;5088885;28;20051;-62
2023/10/15 08:57:21;;;;;;;1.85;0.70;;;;;;;12.38;49.42;99176.94;5088821;28;20020;-64
2023/10/15 08:59:47;;;;;;;1.10;0.57;;;;;;;12.55;49.69;99180.69;5088808;28;20028;-62
2023/10/15 09:02:15;;;;;;;2.47;0.52;;;;;;;12.97;49.94;99184.34;5088632;28;20025;-60
2023/10/15 09:04:40;;;;;;;0.70;0.60;;;;;;;13.65;50.25;99181.75;5088711;28;20020;-64
2023/10/15 09:07:07;;;;;;;1.20;0.60;;;;;;;14.21;47.94;99193.34;5088827;28;20052;-62
2023/10/15 09:09:33;;;;;;;1.33;0.50;;;;;;;14.30;47.74;99189.47;5088460;28;20017;-65
2023/10/15 09:11:59;;;;;;;5.57;1.15;;;;;;;14.37;46.75;99187.47;5088532;28;20111;-61
2023/10/15 09:14:45;;;;;;;0.47;0.40;;;;;;;14.52;45.74;99198.97;5088119;28;20025;-62
2023/10/15 09:17:12;;;;;;;0.40;0.40;;;;;;;14.84;44.49;99203.72;5088579;28;20012;-61
2023/10/15 09:19:41;;;;;;;1.08;0.40;;;;;;;15.25;43.58;99210.56;5088306;28;20028;-63
2023/10/15 09:22:08;;;;;;;0.40;0.30;;;;;;;15.76;41.12;99222.97;5088222;28;20020;-62
2023/10/15 09:24:34;;;;;;;0.68;0.57;;;;;;;16.25;41.63;99221.44;5088375;28;20021;-61
2023/10/15 09:26:59;;;;;;;0.28;0.28;;;;;;;17.41;42.08;99218.00;5088179;28;20031;-60
2023/10/15 09:29:24;;;;;;;1.40;0.43;;;;;;;18.21;40.70;99216.97;5088248;28;20056;-60
2023/10/15 09:31:56;;;;;;;2.38;0.38;;;;;;;18.43;40.72;99224.41;5088243;28;20273;-61
2023/10/15 09:34:25;;;;;;;0.43;0.43;;;;;;;18.01;37.62;99234.72;5070422;28;20098;-61
2023/10/15 09:36:51;;;;;;;0.88;0.50;;;;;;;16.84;36.89;99238.50;5087942;28;20024;-62
2023/10/15 09:39:17;;;;;;;0.47;0.40;;;;;;;15.95;37.26;99228.13;5088204;28;20035;-61
2023/10/15 09:41:42;;;;;;;0.30;0.30;;;;;;;15.03;37.60;99229.00;5087848;28;20024;-60
2023/10/15 09:44:14;;;;;;;2.28;0.70;;;;;;;14.41;38.56;99229.94;5087696;28;20094;-60
2023/10/15 09:46:43;;;;;;;0.93;0.47;;;;;;;15.38;39.27;99254.41;5087592;28;20037;-61
2023/10/15 09:49:12;;;;;;;0.65;0.40;;;;;;;16.69;37.19;99254.09;5087897;28;20036;-61
2023/10/15 09:51:39;;;;;;;2.13;0.90;;;;;;;17.47;35.60;99251.75;5087587;28;20043;-61
2023/10/15 09:54:07;;;;;;;5.57;0.90;;;;;;;17.97;33.23;99267.34;5087705;28;20020;-62
2023/10/15 09:56:34;;;;;;;0.25;0.25;;;;;;;18.12;33.02;99246.41;5085986;28;20048;-63
2023/10/15 09:59:02;;;;;;;0.32;0.32;;;;;;;17.87;32.82;99271.44;5087592;28;20025;-62
2023/10/15 10:01:30;;;;;;;0.30;0.30;;;;;;;17.78;31.67;99246.56;5087701;28;20035;-62
2023/10/15 10:04:23;;;;;;;1.95;0.90;;;;;;;17.44;33.27;99267.69;5087002;28;20032;-63
2023/10/15 10:07:10;;;;;;;1.38;0.40;;;;;;;17.96;31.83;99265.66;5087468;28;20020;-64
2023/10/15 10:10:01;;;;;;;0.60;0.43;;;;;;;18.31;31.39;99268.03;5087629;28;20032;-62
2023/10/15 10:12:45;;;;;;;3.93;0.70;;;;;;;17.32;31.13;99287.56;5087522;28;20060;-62
2023/10/15 10:15:32;;;;;;;0.52;0.50;;;;;;;15.82;31.29;99281.97;5087490;28;20029;-62
2023/10/15 10:17:59;;;;;;;1.23;0.50;;;;;;;14.72;32.42;99280.84;5087336;28;20037;-65
2023/10/15 10:22:23;;;;;;;0.30;0.30;;;;;;;14.18;34.37;99304.84;5143469;27;20375;-62
2023/10/15 10:24:50;;;;;;;0.25;0.25;;;;;;;14.43;35.18;99311.66;5143249;27;20059;-63
2023/10/15 10:27:16;;;;;;;0.43;0.32;;;;;;;14.72;35.94;99315.66;5143725;27;20031;-62
2023/10/15 10:29:52;;;;;;;0.57;0.50;;;;;;;15.07;35.49;99320.28;5143127;27;20024;-62
2023/10/15 10:32:19;;;;;;;1.15;0.50;;;;;;;15.22;35.93;99323.13;5143452;27;20023;-63
2023/10/15 10:35:05;;;;;;;0.40;0.38;;;;;;;15.40;34.78;99325.81;5143258;27;20019;-62
2023/10/15 10:37:31;;;;;;;0.30;0.30;;;;;;;15.36;34.07;99325.94;5143509;28;20023;-62
2023/10/15 10:39:58;;;;;;;0.50;0.40;;;;;;;15.27;33.80;99331.56;5143261;27;20038;-62
2023/10/15 10:42:26;;;;;;;0.60;0.45;;;;;;;14.81;33.35;99337.09;5143233;27;20024;-63
2023/10/15 10:44:56;;;;;;;2.63;0.85;;;;;;;15.07;33.44;99330.72;5142936;27;20023;-62
2023/10/15 10:47:29;;;;;;;0.80;0.60;;;;;;;15.42;34.16;99337.03;5143623;27;20030;-63
2023/10/15 10:50:00;;;;;;;0.70;0.70;;;;;;;15.52;32.39;99320.00;5143265;27;20050;-63
2023/10/15 10:52:36;;;;;;;0.32;0.32;;;;;;;15.03;33.15;99339.59;5143205;27;20068;-66
2023/10/15 10:55:30;;;;;;;0.55;0.52;;;;;;;14.52;34.25;99357.44;5143259;27;20019;-64
2023/10/15 10:57:56;;;;;;;0.43;0.40;;;;;;;14.34;34.52;99349.47;5142575;27;20540;-64
2023/10/15 11:00:21;;;;;;;0.30;0.30;;;;;;;13.92;34.87;99346.75;5143046;27;20083;-68
2023/10/15 11:02:48;;;;;;;0.28;0.28;;;;;;;14.21;35.23;99347.34;5142991;27;20026;-69
2023/10/15 11:05:14;;;;;;;1.20;0.55;;;;;;;15.47;34.09;99358.59;5142652;27;20023;-67
2023/10/15 11:07:40;;;;;;;0.65;0.50;;;;;;;16.83;33.18;99350.38;5141422;28;20041;-66
2023/10/15 11:10:07;;;;;;;1.58;0.43;;;;;;;18.19;33.66;99364.16;5142693;27;20035;-66
2023/10/15 11:12:32;;;;;;;2.72;0.47;;;;;;;19.25;30.56;99357.13;5142518;27;20054;-66
2023/10/15 11:14:58;;;;;;;2.17;0.77;;;;;;;18.85;30.65;99363.00;5142487;27;20027;-65
2023/10/15 11:17:24;;;;;;;0.93;0.60;;;;;;;17.71;32.39;99370.28;5141041;28;20043;-65
2023/10/15 11:19:49;;;;;;;0.52;0.38;;;;;;;16.71;34.41;99361.47;5142363;27;20023;-67
2023/10/15 11:22:15;;;;;;;7.88;0.70;;;;;;;16.02;33.62;99364.81;5141023;28;20019;-66
2023/10/15 11:24:43;;;;;;;0.88;0.88;;;;;;;15.09;32.87;99378.56;5141021;28;20016;-66
2023/10/15 11:27:12;;;;;;;0.22;0.22;;;;;;;14.31;33.57;99381.78;5142254;27;20079;-66
2023/10/15 11:29:37;;;;;;;4.80;0.88;;;;;;;13.77;34.02;99383.88;5142244;27;20388;-65
2023/10/15 11:32:06;;;;;;;0.20;0.20;;;;;;;13.30;33.79;99383.81;5137107;27;20141;-66
2023/10/15 11:34:33;;;;;;;0.80;0.60;;;;;;;12.96;34.67;99393.66;5128385;28;20494;-66
2023/10/15 11:37:01;;;;;;;0.43;0.43;;;;;;;12.76;35.40;99391.75;5127079;28;20023;-66
2023/10/15 11:39:37;;;;;;;0.50;0.50;;;;;;;12.70;36.07;99381.53;5128253;28;20020;-66
2023/10/15 11:42:13;;;;;;;1.05;0.50;;;;;;;12.62;36.18;99385.25;5128343;28;20026;-68
2023/10/15 11:44:44;;;;;;;0.70;0.40;;;;;;;12.60;36.15;99402.66;5128332;27;20061;-66
2023/10/15 11:47:16;;;;;;;1.17;0.45;;;;;;;12.51;37.01;99392.56;5127029;28;20109;-68
2023/10/15 11:49:42;;;;;;;0.40;0.40;;;;;;;12.51;37.06;99398.63;5126560;28;20031;-65